Time;durP1;ratioP1;P1;durP2;ratioP2;P2;SDS_P1;SDS_P2;PMS_P1;PMS_P2;Temp;Humidity;BMP_temperature;BMP_pressure;BME280_temperature;BME280_humidity;BME280_pressure;Samples;Min_cycle;Max_cycle;Signal;HPM_P1;HPM_P2
2022/03/04 00:01:37;;;;;;;4.10;3.10;;;;;;;19.41;37.90;102290.22;4992892;28;20306;-70
2022/03/04 00:04:03;;;;;;;5.78;3.03;;;;;;;19.37;37.94;102280.06;4997409;28;20231;-71
2022/03/04 00:06:28;;;;;;;4.82;3.50;;;;;;;19.35;37.90;102288.13;4995256;28;20045;-70
2022/03/04 00:08:54;;;;;;;4.80;3.45;;;;;;;19.31;37.87;102284.09;4996951;28;20033;-70
2022/03/04 00:11:20;;;;;;;4.20;3.40;;;;;;;19.27;37.86;102283.56;4993410;28;20053;-70
2022/03/04 00:13:46;;;;;;;5.20;3.45;;;;;;;19.21;38.01;102270.94;4995928;28;20084;-70
2022/03/04 00:16:12;;;;;;;4.85;3.40;;;;;;;19.21;38.04;102272.69;4993558;28;20486;-70
2022/03/04 00:18:37;;;;;;;4.85;3.17;;;;;;;19.18;38.17;102279.09;4994119;28;20125;-70
2022/03/04 00:21:03;;;;;;;7.45;3.60;;;;;;;19.22;37.88;102285.78;4994145;28;20048;-70
2022/03/04 00:23:28;;;;;;;4.25;3.17;;;;;;;19.21;37.88;102283.25;4994002;28;20041;-70
2022/03/04 00:25:54;;;;;;;5.15;2.83;;;;;;;19.13;37.83;102275.22;4995639;28;20132;-70
2022/03/04 00:28:19;;;;;;;4.20;2.97;;;;;;;19.16;37.80;102283.69;4993886;28;20128;-70
2022/03/04 00:30:45;;;;;;;4.80;3.13;;;;;;;19.14;37.69;102288.28;4996649;28;20041;-70
2022/03/04 00:33:10;;;;;;;3.35;2.72;;;;;;;19.11;37.83;102285.09;4992565;28;20120;-69
2022/03/04 00:35:36;;;;;;;4.78;3.40;;;;;;;19.09;37.82;102298.44;4994520;28;20049;-70
2022/03/04 00:38:02;;;;;;;4.30;3.17;;;;;;;19.08;37.89;102299.41;4994578;28;20119;-70
2022/03/04 00:40:27;;;;;;;4.78;3.47;;;;;;;19.06;37.82;102295.25;4993622;28;20535;-70
2022/03/04 00:42:53;;;;;;;4.47;3.10;;;;;;;19.04;37.74;102300.66;4994822;28;20628;-70
2022/03/04 00:45:19;;;;;;;5.28;3.20;;;;;;;18.99;37.87;102305.50;4995860;28;20600;-70
2022/03/04 00:47:44;;;;;;;4.20;2.90;;;;;;;18.85;37.96;102288.28;4994238;28;20115;-70
2022/03/04 00:50:10;;;;;;;5.40;3.75;;;;;;;18.94;37.87;102297.19;4995152;28;20030;-70
2022/03/04 00:52:36;;;;;;;4.00;2.90;;;;;;;18.93;37.78;102299.00;4994533;28;20636;-70
2022/03/04 00:55:02;;;;;;;4.78;3.20;;;;;;;18.90;37.91;102301.06;4995529;28;20053;-70
2022/03/04 00:57:28;;;;;;;4.78;3.13;;;;;;;18.87;37.83;102301.34;4993096;28;20049;-70
2022/03/04 00:59:53;;;;;;;4.78;3.05;;;;;;;18.85;37.96;102306.78;4993040;28;20052;-70
2022/03/04 01:02:19;;;;;;;4.05;2.90;;;;;;;18.80;38.03;102292.31;4992149;28;20045;-70
2022/03/04 01:04:44;;;;;;;5.15;3.63;;;;;;;18.78;38.14;102302.16;4995260;28;20150;-70
2022/03/04 01:07:10;;;;;;;4.13;2.90;;;;;;;18.81;37.87;102302.72;4995877;28;20136;-70
2022/03/04 01:09:35;;;;;;;4.47;3.08;;;;;;;18.81;38.03;102315.06;4991835;28;20560;-70
2022/03/04 01:12:01;;;;;;;4.10;2.85;;;;;;;18.75;38.05;102305.91;4991742;28;20640;-70
2022/03/04 01:14:26;;;;;;;4.15;2.85;;;;;;;18.77;37.85;102300.50;4991737;28;20053;-71
2022/03/04 01:16:52;;;;;;;4.38;2.70;;;;;;;18.73;37.98;102307.84;4994303;28;20068;-70
2022/03/04 01:19:18;;;;;;;5.25;3.38;;;;;;;18.75;37.89;102315.63;4996840;28;20041;-71
2022/03/04 01:21:43;;;;;;;4.10;3.03;;;;;;;18.71;37.96;102320.34;4992484;28;20044;-70
2022/03/04 01:24:09;;;;;;;4.70;3.17;;;;;;;18.70;37.88;102329.25;4995181;28;20444;-70
2022/03/04 01:26:34;;;;;;;4.13;3.03;;;;;;;18.68;38.00;102318.84;4995589;28;20866;-70
2022/03/04 01:29:00;;;;;;;4.25;2.90;;;;;;;18.64;37.95;102320.03;4995484;28;20038;-70
2022/03/04 01:31:26;;;;;;;4.68;3.25;;;;;;;18.61;37.93;102317.66;4994465;28;20533;-70
2022/03/04 01:33:51;;;;;;;3.70;2.83;;;;;;;18.67;37.81;102319.81;4991680;28;20045;-71
2022/03/04 01:36:17;;;;;;;3.90;3.10;;;;;;;18.66;37.89;102327.81;4993451;28;20314;-70
2022/03/04 01:38:43;;;;;;;4.00;3.03;;;;;;;18.64;37.48;102327.97;4991601;28;20045;-71
2022/03/04 01:41:08;;;;;;;4.25;3.10;;;;;;;18.58;37.84;102317.94;4992362;28;20057;-70
2022/03/04 01:43:35;;;;;;;4.60;3.35;;;;;;;18.56;37.83;102317.22;4990308;28;20081;-70
2022/03/04 01:46:15;;;;;;;4.50;3.25;;;;;;;18.57;37.94;102325.97;4990318;28;20156;-70
2022/03/04 01:48:43;;;;;;;4.00;3.17;;;;;;;18.55;37.97;102322.66;4991034;28;20458;-70
2022/03/04 01:51:10;;;;;;;4.80;3.65;;;;;;;18.53;37.75;102332.50;4992266;28;20463;-70
2022/03/04 01:53:36;;;;;;;3.47;2.97;;;;;;;18.52;38.04;102322.91;4991902;28;20059;-70
2022/03/04 01:56:02;;;;;;;4.35;3.10;;;;;;;18.50;37.79;102317.78;4992915;28;20072;-70
2022/03/04 01:58:27;;;;;;;5.45;3.17;;;;;;;18.52;37.99;102328.19;4994051;28;20785;-70
2022/03/04 02:00:53;;;;;;;3.67;2.78;;;;;;;18.51;37.89;102316.81;4989541;28;20542;-70
2022/03/04 02:03:18;;;;;;;4.85;3.25;;;;;;;18.37;37.79;102298.72;4992810;28;20049;-70
2022/03/04 02:05:45;;;;;;;4.03;3.05;;;;;;;18.45;37.98;102313.84;4990535;28;20045;-70
2022/03/04 02:08:11;;;;;;;6.22;3.35;;;;;;;18.47;38.10;102319.84;4991938;28;20060;-70
2022/03/04 02:10:36;;;;;;;4.30;3.22;;;;;;;18.45;37.77;102316.50;4991008;28;20083;-70
2022/03/04 02:13:02;;;;;;;4.80;3.30;;;;;;;18.41;37.84;102311.50;4992444;28;20595;-70
2022/03/04 02:15:28;;;;;;;4.80;3.22;;;;;;;18.46;37.83;102323.44;4990941;28;20057;-70
2022/03/04 02:17:53;;;;;;;3.70;3.00;;;;;;;18.48;37.86;102326.78;4990096;28;20155;-71
2022/03/04 02:20:22;;;;;;;4.20;3.00;;;;;;;18.47;37.75;102319.84;4990454;28;20689;-70
2022/03/04 02:22:49;;;;;;;3.95;2.90;;;;;;;18.42;37.85;102309.69;4991692;28;20056;-70
2022/03/04 02:25:14;;;;;;;4.35;3.00;;;;;;;18.39;38.10;102318.72;4991038;28;20041;-70
2022/03/04 02:27:40;;;;;;;4.90;2.72;;;;;;;18.38;37.96;102330.22;4991093;28;20056;-70
2022/03/04 02:30:06;;;;;;;5.28;3.13;;;;;;;18.40;38.03;102322.19;4992520;28;20458;-70
2022/03/04 02:32:31;;;;;;;5.03;3.20;;;;;;;18.34;37.91;102323.56;4991102;28;20041;-70
2022/03/04 02:34:57;;;;;;;3.80;2.85;;;;;;;18.34;37.71;102315.66;4991500;28;20625;-70
2022/03/04 02:37:23;;;;;;;4.03;2.60;;;;;;;18.24;37.61;102301.59;4990412;28;20124;-70
2022/03/04 02:39:50;;;;;;;5.50;3.38;;;;;;;18.38;37.73;102316.22;4988769;28;20737;-71
2022/03/04 02:42:17;;;;;;;4.15;2.88;;;;;;;18.36;37.87;102318.97;4991726;28;20167;-70
2022/03/04 02:44:42;;;;;;;3.88;2.95;;;;;;;18.36;37.68;102318.97;4989616;28;20037;-70
2022/03/04 02:47:08;;;;;;;4.28;3.00;;;;;;;18.34;37.94;102309.53;4992317;28;20455;-70
2022/03/04 02:49:34;;;;;;;4.57;3.08;;;;;;;18.32;37.86;102299.13;4990680;28;21359;-71
2022/03/04 02:51:59;;;;;;;4.50;3.08;;;;;;;18.28;37.71;102296.88;4989199;28;20424;-70
2022/03/04 02:54:25;;;;;;;4.93;3.42;;;;;;;18.16;37.96;102279.50;4991934;28;20092;-71
2022/03/04 02:56:50;;;;;;;4.72;3.00;;;;;;;18.24;38.04;102295.47;4990071;28;20171;-70
2022/03/04 02:59:16;;;;;;;4.05;3.20;;;;;;;18.20;38.00;102300.19;4993317;28;20041;-70
2022/03/04 03:01:41;;;;;;;4.18;2.88;;;;;;;18.21;37.91;102295.75;4989838;28;20084;-70
2022/03/04 03:04:07;;;;;;;5.60;3.38;;;;;;;18.19;38.06;102292.41;4993775;28;20690;-70
2022/03/04 03:06:34;;;;;;;4.10;3.05;;;;;;;18.18;37.76;102286.31;4991290;28;20035;-70
2022/03/04 03:09:00;;;;;;;4.10;2.80;;;;;;;18.16;37.99;102292.69;4991024;28;20462;-71
2022/03/04 03:11:26;;;;;;;4.85;3.35;;;;;;;18.18;37.99;102291.59;4990736;28;20045;-71
2022/03/04 03:13:51;;;;;;;4.47;3.28;;;;;;;18.14;37.93;102300.72;4988225;28;20080;-70
2022/03/04 03:16:17;;;;;;;4.93;3.38;;;;;;;18.11;37.95;102303.59;4991101;28;20112;-70
2022/03/04 03:18:42;;;;;;;5.18;3.55;;;;;;;18.09;38.07;102303.75;4990395;28;20041;-70
2022/03/04 03:21:08;;;;;;;3.83;2.80;;;;;;;18.11;37.79;102306.25;4991446;28;20510;-70
2022/03/04 03:23:34;;;;;;;4.18;3.05;;;;;;;18.09;38.04;102295.84;4989946;28;20042;-70
2022/03/04 03:25:59;;;;;;;4.10;3.20;;;;;;;18.07;38.15;102300.41;4991937;28;20053;-70
2022/03/04 03:28:26;;;;;;;3.97;3.15;;;;;;;18.03;38.05;102298.19;4991114;28;20037;-70
2022/03/04 03:30:52;;;;;;;4.07;3.00;;;;;;;18.03;38.09;102292.91;4989022;28;20044;-70
2022/03/04 03:33:17;;;;;;;5.32;3.42;;;;;;;18.04;37.95;102291.94;4991156;28;20415;-70
2022/03/04 03:35:43;;;;;;;6.07;3.22;;;;;;;17.90;38.02;102269.41;4990113;28;20037;-71
2022/03/04 03:38:08;;;;;;;4.82;3.50;;;;;;;18.01;37.87;102300.13;4991878;28;20033;-71
2022/03/04 03:40:34;;;;;;;4.75;3.58;;;;;;;17.98;38.02;102298.59;4989460;28;20084;-70
2022/03/04 03:43:00;;;;;;;4.47;3.25;;;;;;;18.00;37.75;102301.09;4973373;28;20057;-70
2022/03/04 03:45:25;;;;;;;5.45;3.22;;;;;;;17.99;37.87;102302.06;4989138;28;20092;-70
2022/03/04 03:47:52;;;;;;;5.40;3.40;;;;;;;17.85;38.07;102274.25;4990101;28;20068;-70
2022/03/04 03:50:18;;;;;;;5.78;3.20;;;;;;;17.97;37.96;102306.63;4991598;28;20638;-71
2022/03/04 03:52:43;;;;;;;4.40;3.38;;;;;;;17.82;37.95;102298.22;4988478;28;20051;-70
2022/03/04 03:55:09;;;;;;;4.47;3.30;;;;;;;17.92;38.09;102309.63;4991381;28;20033;-70
2022/03/04 03:57:35;;;;;;;5.53;3.88;;;;;;;17.94;37.85;102306.84;4989346;28;20665;-70
2022/03/04 04:00:00;;;;;;;4.85;3.33;;;;;;;17.92;37.95;102312.25;4990718;28;20084;-71
2022/03/04 04:02:26;;;;;;;5.43;3.63;;;;;;;17.91;37.96;102321.13;4990442;28;20411;-70
2022/03/04 04:04:51;;;;;;;4.53;3.28;;;;;;;17.93;38.02;102318.38;4991308;28;20480;-70
2022/03/04 04:07:17;;;;;;;5.20;3.30;;;;;;;17.89;37.93;102317.81;4991728;28;21130;-70
2022/03/04 04:09:43;;;;;;;4.53;3.35;;;;;;;17.85;37.74;102319.03;4991065;28;20119;-70
2022/03/04 04:12:09;;;;;;;7.13;3.83;;;;;;;17.74;37.95;102304.13;4990135;28;20091;-70
2022/03/04 04:14:34;;;;;;;5.65;3.10;;;;;;;17.83;37.84;102304.31;4989689;28;20786;-71
2022/03/04 04:17:00;;;;;;;4.10;2.95;;;;;;;17.84;37.90;102313.91;4991358;28;20176;-70
2022/03/04 04:19:25;;;;;;;4.65;3.42;;;;;;;17.84;37.84;102316.53;4991930;28;20037;-70
2022/03/04 04:21:51;;;;;;;5.30;3.42;;;;;;;17.83;38.01;102317.50;4989493;28;20044;-70
2022/03/04 04:24:18;;;;;;;4.63;3.38;;;;;;;17.83;38.03;102320.13;4991744;28;20727;-69
2022/03/04 04:26:45;;;;;;;4.47;3.13;;;;;;;17.81;37.88;102315.84;4991925;28;20058;-69
2022/03/04 04:29:14;;;;;;;4.75;3.47;;;;;;;17.82;37.95;102316.66;4990056;28;20037;-70
2022/03/04 04:31:40;;;;;;;6.53;3.72;;;;;;;17.80;37.91;102313.31;4990315;28;20045;-70
2022/03/04 04:34:06;;;;;;;5.68;3.40;;;;;;;17.79;37.89;102315.13;4990032;28;20080;-70
2022/03/04 04:36:32;;;;;;;5.40;3.60;;;;;;;17.74;37.87;102308.56;4991107;28;20152;-70
2022/03/04 04:38:58;;;;;;;5.10;3.67;;;;;;;17.76;37.95;102320.63;4992063;28;20045;-70
2022/03/04 04:41:24;;;;;;;5.07;3.38;;;;;;;17.73;37.93;102315.63;4988336;28;20049;-70
2022/03/04 04:43:50;;;;;;;5.00;3.35;;;;;;;17.60;38.05;102298.34;4994372;28;20780;-70
2022/03/04 04:46:15;;;;;;;4.95;3.13;;;;;;;17.75;37.80;102323.41;4991505;28;20044;-70
2022/03/04 04:48:41;;;;;;;5.53;3.70;;;;;;;17.76;37.80;102336.44;4994895;28;20061;-69
2022/03/04 04:51:07;;;;;;;6.03;3.83;;;;;;;17.75;37.86;102344.47;4992866;28;20538;-70
2022/03/04 04:53:34;;;;;;;5.10;3.40;;;;;;;17.76;37.83;102344.34;4994207;28;20215;-70
2022/03/04 04:55:59;;;;;;;4.60;3.40;;;;;;;17.74;38.00;102340.19;4993771;28;20060;-69
2022/03/04 04:58:25;;;;;;;6.38;4.20;;;;;;;17.71;37.86;102340.44;4994948;28;20120;-70
2022/03/04 05:00:55;;;;;;;5.55;3.85;;;;;;;17.70;37.93;102342.25;4995097;28;20068;-69
2022/03/04 05:03:25;;;;;;;4.93;3.70;;;;;;;17.70;37.83;102346.69;4991572;28;20095;-70
2022/03/04 05:05:55;;;;;;;5.28;3.85;;;;;;;17.68;37.82;102346.81;4992773;28;20118;-70
2022/03/04 05:08:21;;;;;;;5.43;3.58;;;;;;;17.68;37.70;102336.25;4970777;28;20053;-70
2022/03/04 05:10:47;;;;;;;5.95;3.72;;;;;;;17.67;37.89;102339.00;4994468;28;20310;-70
2022/03/04 05:13:13;;;;;;;5.15;3.50;;;;;;;17.67;37.88;102339.84;4994260;28;20052;-70
2022/03/04 05:15:39;;;;;;;4.50;3.50;;;;;;;17.63;38.08;102333.16;4993717;28;20045;-70
2022/03/04 05:18:06;;;;;;;9.25;3.88;;;;;;;17.65;37.92;102344.41;4993131;28;20306;-70
2022/03/04 05:20:31;;;;;;;5.53;3.45;;;;;;;17.67;37.83;102352.19;4992006;28;20396;-70
2022/03/04 05:22:57;;;;;;;4.85;3.85;;;;;;;17.76;37.95;102344.34;4992290;28;20049;-70
2022/03/04 05:25:22;;;;;;;5.65;3.42;;;;;;;17.98;37.79;102353.09;4994737;28;20037;-70
2022/03/04 05:27:48;;;;;;;5.07;3.58;;;;;;;18.36;37.52;102349.81;4993759;28;20072;-70
2022/03/04 05:30:14;;;;;;;5.03;3.60;;;;;;;18.77;36.91;102348.84;4992701;28;20036;-70
2022/03/04 05:32:39;;;;;;;5.53;3.72;;;;;;;19.05;36.60;102344.56;4994567;28;20072;-69
2022/03/04 05:35:06;;;;;;;4.82;3.47;;;;;;;19.29;36.27;102342.34;4993606;28;20049;-70
2022/03/04 05:37:32;;;;;;;4.45;2.90;;;;;;;19.50;36.01;102352.75;4987437;28;20059;-70
2022/03/04 05:39:57;;;;;;;5.63;3.63;;;;;;;19.66;36.02;102343.47;4991386;28;20128;-69
2022/03/04 05:42:23;;;;;;;4.68;3.20;;;;;;;19.71;35.76;102346.50;4993395;28;20048;-70
2022/03/04 05:44:48;;;;;;;3.72;2.80;;;;;;;19.65;35.80;102339.16;4995021;28;20124;-70
2022/03/04 05:47:14;;;;;;;4.30;3.00;;;;;;;19.59;36.10;102340.56;4990694;28;20627;-70
2022/03/04 05:49:40;;;;;;;5.45;3.75;;;;;;;19.50;36.24;102347.47;4993052;28;20033;-70
2022/03/04 05:52:06;;;;;;;4.68;3.47;;;;;;;19.47;36.26;102342.47;4992092;28;20045;-70
2022/03/04 05:54:31;;;;;;;4.75;3.17;;;;;;;19.48;36.43;102341.50;4994051;28;20131;-69
2022/03/04 05:56:57;;;;;;;4.20;3.10;;;;;;;19.57;36.17;102343.34;4990668;28;20049;-69
2022/03/04 05:59:22;;;;;;;5.40;3.40;;;;;;;19.66;36.25;102341.66;4992313;28;20091;-70
2022/03/04 06:01:48;;;;;;;4.70;3.15;;;;;;;19.73;36.04;102341.91;4992607;28;20600;-70
2022/03/04 06:04:14;;;;;;;4.18;3.28;;;;;;;19.82;35.82;102338.41;4990964;28;20075;-70
2022/03/04 06:06:40;;;;;;;4.50;3.67;;;;;;;19.94;35.74;102341.75;4995230;28;20510;-70
2022/03/04 06:09:05;;;;;;;4.00;3.13;;;;;;;19.92;35.63;102337.41;4990239;28;20467;-69
2022/03/04 06:11:31;;;;;;;5.55;3.60;;;;;;;19.96;35.64;102358.28;4992784;28;20033;-69
2022/03/04 06:13:57;;;;;;;5.47;3.55;;;;;;;19.91;35.68;102341.03;4991853;28;20053;-70
2022/03/04 06:16:22;;;;;;;4.88;3.22;;;;;;;19.88;35.92;102346.59;4992057;28;20819;-70
2022/03/04 06:18:48;;;;;;;4.80;3.08;;;;;;;19.80;35.72;102349.13;4993511;28;20083;-70
2022/03/04 06:21:14;;;;;;;4.68;3.40;;;;;;;19.75;36.02;102351.38;4993151;28;20060;-70
2022/03/04 06:23:39;;;;;;;4.80;3.20;;;;;;;19.75;35.94;102347.88;4992282;28;20570;-70
2022/03/04 06:26:05;;;;;;;4.38;3.40;;;;;;;19.77;35.90;102353.88;4990818;28;20582;-70
2022/03/04 06:28:31;;;;;;;4.35;3.20;;;;;;;19.79;35.88;102352.75;4994133;28;20067;-70
2022/03/04 06:30:57;;;;;;;3.97;3.20;;;;;;;19.87;35.82;102362.59;4993395;28;20574;-70
2022/03/04 06:33:32;;;;;;;4.78;3.42;;;;;;;19.94;35.63;102361.06;4992332;28;20053;-70
2022/03/04 06:36:07;;;;;;;4.10;2.92;;;;;;;19.94;35.49;102366.38;4991567;28;20814;-70
2022/03/04 06:38:35;;;;;;;4.97;3.47;;;;;;;19.91;35.62;102370.09;4991851;28;20597;-69
2022/03/04 06:41:01;;;;;;;5.70;3.53;;;;;;;19.84;35.82;102371.66;4992229;28;20167;-70
2022/03/04 06:43:26;;;;;;;4.57;3.45;;;;;;;19.82;35.79;102372.78;4991199;28;20718;-70
2022/03/04 06:45:52;;;;;;;5.68;3.53;;;;;;;19.78;35.80;102372.25;4990775;28;20119;-70
2022/03/04 06:48:18;;;;;;;4.20;3.40;;;;;;;19.78;35.75;102380.16;4989526;28;20610;-70
2022/03/04 06:50:45;;;;;;;3.65;2.90;;;;;;;19.80;35.47;102380.84;4993688;28;20637;-70
2022/03/04 06:53:11;;;;;;;4.82;3.38;;;;;;;19.86;35.58;102371.50;4990856;28;20147;-69
2022/03/04 06:55:37;;;;;;;4.22;3.08;;;;;;;19.81;35.46;102371.94;4993419;28;20621;-70
2022/03/04 06:58:02;;;;;;;3.80;3.03;;;;;;;19.78;35.63;102371.41;4990023;28;20620;-69
2022/03/04 07:00:29;;;;;;;4.65;3.53;;;;;;;19.77;35.51;102375.03;4992734;28;20068;-70
2022/03/04 07:02:54;;;;;;;4.03;3.00;;;;;;;19.78;35.59;102374.88;4990279;28;20045;-70
2022/03/04 07:05:21;;;;;;;4.28;3.10;;;;;;;19.74;35.77;102370.00;4991410;28;20076;-70
2022/03/04 07:07:50;;;;;;;5.10;3.30;;;;;;;19.88;35.64;102380.13;4991733;28;20679;-70
2022/03/04 07:10:16;;;;;;;4.15;3.00;;;;;;;19.99;35.42;102381.78;4989293;28;20743;-70
2022/03/04 07:12:42;;;;;;;4.05;3.10;;;;;;;20.05;35.37;102387.31;4992306;28;20552;-70
2022/03/04 07:15:09;;;;;;;3.95;3.17;;;;;;;19.92;35.30;102379.69;4988454;28;20777;-70
2022/03/04 07:17:35;;;;;;;4.10;3.20;;;;;;;19.96;35.39;102388.19;4990411;28;20080;-70
2022/03/04 07:20:00;;;;;;;4.60;3.20;;;;;;;19.92;35.43;102385.00;4991368;28;20677;-70
2022/03/04 07:22:26;;;;;;;4.45;3.42;;;;;;;19.88;35.42;102378.31;4992893;28;20448;-70
2022/03/04 07:24:51;;;;;;;4.93;3.30;;;;;;;19.86;35.50;102387.38;4990019;28;20083;-70
2022/03/04 07:27:17;;;;;;;3.88;2.92;;;;;;;19.83;35.53;102382.38;4991884;28;20602;-70
2022/03/04 07:29:43;;;;;;;4.60;2.97;;;;;;;19.90;35.26;102391.41;4988317;28;20503;-70
2022/03/04 07:32:09;;;;;;;4.47;3.50;;;;;;;19.93;35.22;102393.78;4989846;28;20048;-70
2022/03/04 07:34:34;;;;;;;5.05;3.05;;;;;;;19.92;35.36;102397.38;4989275;28;20045;-68
2022/03/04 07:37:00;;;;;;;4.53;3.28;;;;;;;19.86;35.25;102393.50;4990459;28;20073;-69
2022/03/04 07:39:25;;;;;;;3.83;2.97;;;;;;;19.80;35.32;102395.88;4991030;28;20518;-69
2022/03/04 07:41:51;;;;;;;4.38;3.30;;;;;;;19.76;35.37;102397.97;4989152;28;20587;-69
2022/03/04 07:44:26;;;;;;;5.38;3.13;;;;;;;19.69;35.36;102401.31;4991369;28;20044;-69
2022/03/04 07:46:51;;;;;;;4.68;3.42;;;;;;;19.76;35.40;102399.78;4987514;28;20994;-69
2022/03/04 07:49:17;;;;;;;4.18;3.13;;;;;;;19.75;35.28;102392.81;4990416;28;20503;-69
2022/03/04 07:51:43;;;;;;;4.43;3.30;;;;;;;19.75;35.29;102398.97;4989382;28;20353;-69
2022/03/04 07:54:10;;;;;;;4.55;3.42;;;;;;;19.71;35.54;102399.34;4990444;28;20557;-69
2022/03/04 07:56:35;;;;;;;3.55;3.03;;;;;;;19.76;35.46;102399.78;4990261;28;20126;-69
2022/03/04 07:59:01;;;;;;;4.13;3.17;;;;;;;19.75;35.53;102403.38;4990026;28;20049;-69
2022/03/04 08:01:26;;;;;;;4.40;3.47;;;;;;;19.74;35.38;102399.91;4992650;28;20041;-69
2022/03/04 08:03:52;;;;;;;5.22;3.17;;;;;;;19.81;35.33;102406.31;4991444;28;20068;-69
2022/03/04 08:06:18;;;;;;;4.32;2.97;;;;;;;19.82;35.38;102397.41;4991946;28;20038;-69
2022/03/04 08:08:43;;;;;;;4.20;2.83;;;;;;;19.82;35.23;102393.94;4989693;28;20904;-69
2022/03/04 08:11:09;;;;;;;4.07;3.10;;;;;;;19.83;35.24;102404.34;4992539;28;20050;-69
2022/03/04 08:13:36;;;;;;;4.15;2.97;;;;;;;19.82;35.27;102400.06;4991994;28;22326;-68
2022/03/04 08:16:02;;;;;;;4.22;3.08;;;;;;;19.78;35.26;102397.84;4991754;28;20064;-69
2022/03/04 08:18:28;;;;;;;4.05;2.85;;;;;;;19.78;35.06;102401.31;4991091;28;20037;-69
2022/03/04 08:20:53;;;;;;;4.13;3.05;;;;;;;19.78;35.18;102405.78;4996355;28;20989;-68
2022/03/04 08:23:19;;;;;;;4.95;3.28;;;;;;;19.74;35.22;102410.47;4994197;28;20041;-68
2022/03/04 08:25:45;;;;;;;4.05;3.03;;;;;;;19.74;35.18;102410.47;4995544;28;20041;-69
2022/03/04 08:28:11;;;;;;;5.80;3.75;;;;;;;19.59;35.43;102388.97;4993749;28;20661;-68
2022/03/04 08:30:37;;;;;;;4.82;3.35;;;;;;;19.70;35.44;102409.09;4994846;28;20755;-69
2022/03/04 08:33:03;;;;;;;4.55;3.08;;;;;;;19.72;35.40;102417.72;4995743;28;20046;-69
2022/03/04 08:35:28;;;;;;;5.35;3.35;;;;;;;19.71;35.56;102421.34;4994656;28;20060;-70
2022/03/04 08:37:54;;;;;;;4.18;3.08;;;;;;;19.66;35.64;102423.56;4995800;28;20267;-70
2022/03/04 08:40:20;;;;;;;4.22;3.05;;;;;;;19.69;35.59;102425.09;4994417;28;20727;-70
2022/03/04 08:42:46;;;;;;;4.20;3.05;;;;;;;19.75;35.59;102416.59;4996624;28;20714;-69
2022/03/04 08:45:15;;;;;;;4.63;3.30;;;;;;;19.77;35.34;102426.09;4994835;28;20048;-69
2022/03/04 08:47:43;;;;;;;4.90;3.42;;;;;;;19.79;35.46;102434.69;4995204;28;20320;-70
2022/03/04 08:50:10;;;;;;;4.63;3.17;;;;;;;19.78;35.49;102430.41;4994324;28;20644;-70
2022/03/04 08:52:36;;;;;;;3.80;3.10;;;;;;;19.76;35.57;102435.00;4995664;28;20947;-70
2022/03/04 08:55:02;;;;;;;3.92;3.00;;;;;;;19.76;35.60;102437.63;4996436;28;20139;-69
2022/03/04 08:57:28;;;;;;;4.90;2.80;;;;;;;19.76;35.49;102445.56;4996264;28;20044;-70
2022/03/04 08:59:53;;;;;;;3.55;3.00;;;;;;;19.76;35.42;102432.34;4996857;28;21221;-70
2022/03/04 09:02:19;;;;;;;5.95;3.20;;;;;;;19.73;35.57;102434.41;4995572;28;20037;-70
2022/03/04 09:04:45;;;;;;;4.10;3.13;;;;;;;19.72;35.53;102443.31;4996430;28;20088;-69
2022/03/04 09:07:10;;;;;;;3.75;3.03;;;;;;;19.69;35.68;102422.47;4994507;28;20512;-70
2022/03/04 09:09:36;;;;;;;3.45;3.00;;;;;;;19.68;35.83;102442.75;4997572;28;20025;-70
2022/03/04 09:12:02;;;;;;;4.43;3.10;;;;;;;19.71;35.81;102439.00;4994282;28;20041;-70
2022/03/04 09:14:27;;;;;;;4.60;3.10;;;;;;;19.77;35.53;102443.75;4995428;28;20059;-70
2022/03/04 09:16:53;;;;;;;5.00;3.03;;;;;;;19.79;35.64;102437.34;4995400;28;20072;-69
2022/03/04 09:19:19;;;;;;;4.00;2.90;;;;;;;19.80;35.57;102436.38;4994314;28;20449;-70
2022/03/04 09:21:45;;;;;;;4.45;3.22;;;;;;;19.79;35.56;102439.16;4995565;28;20030;-69
2022/03/04 09:24:10;;;;;;;4.82;3.25;;;;;;;19.78;35.55;102437.50;4992840;28;20763;-69
2022/03/04 09:26:36;;;;;;;5.45;3.00;;;;;;;19.83;35.39;102446.66;4995365;28;20073;-69
2022/03/04 09:29:01;;;;;;;3.63;2.97;;;;;;;19.83;35.46;102448.47;4993485;28;20045;-69
2022/03/04 09:31:27;;;;;;;4.32;3.20;;;;;;;19.84;35.53;102447.50;4995890;28;20084;-69
2022/03/04 09:33:53;;;;;;;4.25;3.10;;;;;;;19.78;35.55;102448.91;4995345;28;20596;-69
2022/03/04 09:36:19;;;;;;;4.38;3.25;;;;;;;19.80;35.41;102446.94;4997305;28;20715;-69
2022/03/04 09:38:44;;;;;;;4.05;3.13;;;;;;;19.82;35.53;102449.44;4995772;28;21030;-69
2022/03/04 09:41:11;;;;;;;4.10;2.80;;;;;;;19.78;35.64;102448.06;4996305;28;20838;-69
2022/03/04 09:43:38;;;;;;;3.42;2.80;;;;;;;19.78;35.73;102448.06;4993926;28;20044;-69
2022/03/04 09:46:04;;;;;;;4.82;2.95;;;;;;;19.83;35.72;102446.66;4993178;28;20064;-69
2022/03/04 09:48:30;;;;;;;3.20;2.80;;;;;;;19.80;35.87;102454.88;4994004;28;20163;-69
2022/03/04 09:50:55;;;;;;;4.18;3.05;;;;;;;19.76;35.94;102447.38;4994430;28;20068;-69
2022/03/04 09:53:21;;;;;;;3.40;2.60;;;;;;;19.80;35.78;102444.28;4995462;28;20053;-69
2022/03/04 09:55:46;;;;;;;4.38;3.28;;;;;;;19.83;35.72;102437.88;4993633;28;20687;-70
2022/03/04 09:58:17;;;;;;;4.43;3.20;;;;;;;19.70;36.15;102442.63;4962455;28;20055;-68
2022/03/04 10:00:44;;;;;;;4.72;3.00;;;;;;;19.68;36.54;102437.47;4985373;28;20837;-70
2022/03/04 10:03:39;;;;;;;4.55;3.20;;;;;;;19.75;36.50;102440.38;4988416;28;20096;-72
2022/03/04 10:06:05;;;;;;;5.15;3.10;;;;;;;19.84;36.74;102442.19;4962974;28;20056;-69
2022/03/04 10:08:37;;;;;;;5.75;3.58;;;;;;;19.91;36.54;102440.66;4994636;28;20694;-73
2022/03/04 10:11:03;;;;;;;4.28;3.15;;;;;;;20.00;36.39;102438.97;4973316;28;20539;-72
2022/03/04 10:13:40;;;;;;;5.13;3.00;;;;;;;20.08;36.31;102437.28;4994834;28;20053;-77
2022/03/04 10:16:06;;;;;;;4.35;3.15;;;;;;;20.13;36.44;102445.66;4975951;28;20060;-72
2022/03/04 10:18:31;;;;;;;4.10;2.95;;;;;;;20.17;36.27;102439.09;4999170;28;20034;-70
2022/03/04 10:20:57;;;;;;;4.85;3.10;;;;;;;20.16;36.40;102440.06;4950952;28;20068;-70
2022/03/04 10:23:24;;;;;;;4.43;3.13;;;;;;;20.23;36.02;102435.84;4994822;28;20065;-73
2022/03/04 10:25:59;;;;;;;4.47;3.15;;;;;;;20.29;36.22;102442.41;4976619;28;20128;-71
2022/03/04 10:28:27;;;;;;;5.82;3.80;;;;;;;20.27;35.92;102435.56;4994638;28;20858;-74
2022/03/04 10:30:54;;;;;;;5.20;3.40;;;;;;;20.28;36.13;102435.41;4966571;28;20049;-65
2022/03/04 10:33:28;;;;;;;4.47;2.97;;;;;;;20.17;36.45;102435.59;4945176;28;21141;-63
2022/03/04 10:36:06;;;;;;;5.78;3.30;;;;;;;20.09;36.49;102432.81;4882404;28;20053;-66
2022/03/04 10:38:32;;;;;;;4.18;3.30;;;;;;;20.02;36.46;102437.88;4858078;28;20935;-65
2022/03/04 10:40:58;;;;;;;4.50;3.53;;;;;;;19.99;36.54;102432.03;4808622;28;21463;-64
2022/03/04 10:43:31;;;;;;;6.63;4.03;;;;;;;19.97;36.26;102434.81;4785422;28;20802;-64
2022/03/04 10:46:14;;;;;;;6.18;4.07;;;;;;;20.02;35.85;102432.56;4748396;28;21125;-65
2022/03/04 10:48:51;;;;;;;5.50;3.53;;;;;;;20.00;35.83;102397.50;4735507;28;21161;-67
2022/03/04 10:51:33;;;;;;;3.92;3.17;;;;;;;20.16;36.15;102426.00;4729439;28;20978;-69
2022/03/04 10:54:15;;;;;;;5.13;3.60;;;;;;;20.28;35.99;102424.00;4734144;28;22133;-66
2022/03/04 10:57:07;;;;;;;5.45;3.60;;;;;;;20.28;35.69;102416.06;4726521;28;21493;-70
2022/03/04 10:59:34;;;;;;;6.25;3.83;;;;;;;20.37;35.78;102421.34;4714229;28;21293;-74
2022/03/04 11:02:00;;;;;;;7.57;3.72;;;;;;;20.38;35.69;102424.81;4706797;28;21625;-66
2022/03/04 11:04:25;;;;;;;5.53;4.28;;;;;;;20.37;35.95;102420.50;4729521;28;21097;-71
2022/03/04 11:06:51;;;;;;;5.63;3.60;;;;;;;20.25;36.20;102406.63;4724577;28;21715;-75
2022/03/04 11:09:24;;;;;;;5.82;4.13;;;;;;;20.36;36.12;102422.31;4717474;28;20785;-73
2022/03/04 11:11:52;;;;;;;4.13;3.20;;;;;;;20.43;36.03;102431.38;4725570;28;20719;-70
2022/03/04 11:14:19;;;;;;;6.10;3.78;;;;;;;20.44;35.90;102418.97;4730870;28;21022;-71
2022/03/04 11:16:49;;;;;;;4.22;3.70;;;;;;;20.38;35.96;102401.00;4702893;28;21672;-68
2022/03/04 11:19:16;;;;;;;5.55;4.00;;;;;;;20.35;36.13;102411.88;4715572;28;21138;-63
2022/03/04 11:21:42;;;;;;;5.30;4.03;;;;;;;20.40;35.85;102420.22;4725895;28;20967;-69